Ana Sayfa
METAR-TAF:

METAR-TAF

Havaalanları :

Tucson, Arizona, Amerika Birleşik Devletleri

Enlem: 32-24-34N, Boylam: 111-13-06W, yükseklik: 619 m

Güncel hava durumu gözlemi

Rapor saat 00:35 UTC de 17 dakika önce yapıldı.
Rüzgar batı/kuzeybatıdan 6 kt
Sıcaklık 37°C
Nem 5%
Basınç 1010 hPa
Görüş mesafesi: 16.1 km
Açık gökyüzü

METAR: KAVQ 200035Z AUTO 30006KT 10SM CLR 37/M09 A2983 RMK AO2 T03711089

Saat: 17:52 (00:52 UTC)


TAF: eksik

4.000'den fazla havaalanı için hava durumu gözlemleri ve tahminleri (METAR ve TAF raporları).

Kullanılabilir istasyonlar harita üzerinde sarı ve kırmızı noktalarla gösterilir.

İstasyonun adını görmek için fareyi noktanın üzerinde gezdirin.

Sonrasında hava gözlem ve tahminlerini görmek için tıklayın.

Haritayı değiştirmek için: yaklaştırmak için siyah artı işaretli yeşil düğmeye ve uzaklaştırmak için de eksi işaretli düğmeye hızla tıklayın; bitişik haritalar için yeşil okları kullanın.


METAR-TAF: